createdAt,value
2023-05-04T00:00:17.084Z,9.30
2023-05-04T00:03:04.263Z,9.45
2023-05-04T00:05:32.671Z,8.48
2023-05-04T00:07:59.769Z,8.52
2023-05-04T00:10:28.075Z,8.30
2023-05-04T00:12:55.226Z,8.43
2023-05-04T00:15:23.072Z,7.65
2023-05-04T00:17:50.223Z,8.35
2023-05-04T00:20:18.515Z,7.65
2023-05-04T00:22:45.798Z,7.88
2023-05-04T00:25:13.294Z,8.27
2023-05-04T00:27:40.896Z,7.22
2023-05-04T00:30:09.056Z,6.25
2023-05-04T00:32:36.188Z,7.88
2023-05-04T00:35:04.050Z,8.45
2023-05-04T00:37:31.219Z,8.55
2023-05-04T00:39:58.600Z,6.80
2023-05-04T00:42:26.115Z,7.82
2023-05-04T00:44:54.865Z,8.23
2023-05-04T00:47:23.132Z,7.18
2023-05-04T00:49:52.821Z,7.53
2023-05-04T00:52:20.941Z,6.85
2023-05-04T00:54:49.002Z,7.75
2023-05-04T00:57:17.277Z,9.15
2023-05-04T00:59:44.620Z,7.60
2023-05-04T01:02:11.873Z,8.65
2023-05-04T01:04:39.693Z,7.55
2023-05-04T01:07:22.633Z,8.63
2023-05-04T01:10:12.405Z,8.73
2023-05-04T01:12:49.007Z,8.65
2023-05-04T01:15:16.624Z,8.98
2023-05-04T01:17:44.129Z,8.88
2023-05-04T01:20:12.255Z,8.68
2023-05-04T01:22:39.902Z,9.00
2023-05-04T01:25:08.479Z,9.02
2023-05-04T01:27:51.192Z,10.35
2023-05-04T01:30:32.219Z,9.48
2023-05-04T01:33:02.868Z,9.75
2023-05-04T01:35:30.611Z,9.30
2023-05-04T01:37:57.813Z,9.27
2023-05-04T01:40:25.371Z,8.20
2023-05-04T01:42:52.606Z,9.43
2023-05-04T01:45:20.461Z,8.00
2023-05-04T01:47:48.031Z,9.57
2023-05-04T01:50:15.561Z,10.77
2023-05-04T01:52:42.813Z,7.93
2023-05-04T01:55:10.440Z,9.00
2023-05-04T01:57:37.593Z,10.55
2023-05-04T02:00:05.698Z,9.85
2023-05-04T02:02:43.372Z,9.13
2023-05-04T02:05:13.656Z,10.13
2023-05-04T02:07:40.837Z,9.63
2023-05-04T02:10:09.195Z,9.35
2023-05-04T02:12:36.456Z,8.07
2023-05-04T02:15:05.444Z,10.02
2023-05-04T02:17:32.774Z,8.88
2023-05-04T02:20:00.229Z,8.75
2023-05-04T02:22:28.593Z,10.52
2023-05-04T02:24:56.798Z,11.13
2023-05-04T02:27:24.012Z,11.05
2023-05-04T02:29:51.391Z,12.20
2023-05-04T02:32:18.636Z,11.20
2023-05-04T02:34:46.016Z,12.25
2023-05-04T02:37:13.128Z,11.02
2023-05-04T02:39:40.463Z,12.20
2023-05-04T02:42:07.591Z,11.57
2023-05-04T02:44:35.035Z,10.35
2023-05-04T02:47:06.228Z,10.38
2023-05-04T02:49:33.756Z,10.27
2023-05-04T02:55:33.724Z,8.65
2023-05-04T02:58:01.391Z,10.75
2023-05-04T03:00:28.776Z,10.07
2023-05-04T03:02:55.955Z,10.20
2023-05-04T03:05:24.041Z,9.98
2023-05-04T03:07:53.016Z,10.25
2023-05-04T03:10:20.426Z,9.55
2023-05-04T03:12:47.725Z,7.53
2023-05-04T03:15:15.349Z,9.95
2023-05-04T03:17:43.380Z,8.23
2023-05-04T03:20:13.439Z,8.18
2023-05-04T03:22:42.073Z,8.13
2023-05-04T03:25:10.264Z,8.52
2023-05-04T03:27:37.872Z,8.45
2023-05-04T03:30:06.739Z,8.10
2023-05-04T03:32:35.205Z,8.52
2023-05-04T03:35:04.111Z,9.13
2023-05-04T03:37:31.901Z,7.95
2023-05-04T03:39:59.332Z,8.15
2023-05-04T03:42:26.692Z,8.80
2023-05-04T03:44:54.434Z,8.10
2023-05-04T03:47:21.622Z,8.93
2023-05-04T03:49:49.138Z,10.32
2023-05-04T03:52:16.257Z,10.65
2023-05-04T03:54:43.669Z,9.15
2023-05-04T03:57:12.087Z,8.48
2023-05-04T03:59:40.020Z,9.15
2023-05-04T04:02:07.214Z,9.52
2023-05-04T04:04:34.822Z,9.73
2023-05-04T04:07:02.066Z,11.68
2023-05-04T04:09:31.484Z,9.93
2023-05-04T04:11:58.610Z,9.43
2023-05-04T04:14:26.624Z,13.23
2023-05-04T04:16:53.799Z,11.85
2023-05-04T04:19:21.192Z,12.40
2023-05-04T04:21:48.240Z,14.20
2023-05-04T04:24:15.688Z,14.18
2023-05-04T04:26:43.161Z,15.13
2023-05-04T04:29:10.831Z,14.55
2023-05-04T04:31:38.072Z,18.70
2023-05-04T04:34:05.937Z,14.68
2023-05-04T04:36:33.498Z,16.83
2023-05-04T04:39:00.894Z,17.83
2023-05-04T04:41:28.165Z,17.65
2023-05-04T04:43:55.954Z,20.00
2023-05-04T04:46:23.159Z,19.77
2023-05-04T04:48:52.514Z,20.63
2023-05-04T04:51:19.933Z,22.42
2023-05-04T04:53:47.303Z,20.83
2023-05-04T04:56:14.646Z,19.75
2023-05-04T04:58:42.491Z,17.75
2023-05-04T05:01:09.648Z,19.90
2023-05-04T05:03:37.299Z,20.35
2023-05-04T05:06:04.415Z,20.75
2023-05-04T05:08:33.673Z,20.58
2023-05-04T05:11:00.781Z,15.77
2023-05-04T05:13:28.279Z,17.38
2023-05-04T05:15:55.646Z,21.45
2023-05-04T05:18:23.960Z,36.55
2023-05-04T05:20:51.120Z,21.45
2023-05-04T05:23:18.458Z,29.52
2023-05-04T05:25:45.649Z,42.08
2023-05-04T05:28:16.162Z,23.85
2023-05-04T05:30:44.020Z,19.40
2023-05-04T05:33:11.513Z,20.52
2023-05-04T05:35:38.699Z,21.25
2023-05-04T05:38:06.049Z,33.20
2023-05-04T05:40:33.259Z,36.35
2023-05-04T05:43:00.704Z,23.10
2023-05-04T05:45:27.989Z,22.13
2023-05-04T05:47:55.915Z,21.52
2023-05-04T05:50:24.265Z,24.58
2023-05-04T05:52:51.681Z,34.63
2023-05-04T05:55:18.938Z,21.27
2023-05-04T05:57:46.250Z,22.50
2023-05-04T06:00:14.402Z,22.58
2023-05-04T06:02:42.775Z,21.58
2023-05-04T06:05:11.550Z,22.35
2023-05-04T06:07:38.906Z,29.10
2023-05-04T06:10:07.025Z,37.15
2023-05-04T06:12:35.026Z,23.65
2023-05-04T06:15:02.438Z,34.78
2023-05-04T06:17:30.032Z,25.17
2023-05-04T06:19:57.249Z,35.13
2023-05-04T06:22:24.666Z,24.98
2023-05-04T06:24:52.952Z,29.52
2023-05-04T06:27:23.710Z,24.38
2023-05-04T06:29:52.025Z,26.08
2023-05-04T06:32:19.503Z,38.10
2023-05-04T06:34:46.716Z,40.63
2023-05-04T06:37:15.556Z,29.30
2023-05-04T06:39:43.232Z,21.85
2023-05-04T06:42:11.417Z,19.58
2023-05-04T06:44:40.944Z,22.27
2023-05-04T06:47:08.432Z,23.25
2023-05-04T06:49:36.161Z,23.95
2023-05-04T06:52:03.921Z,19.30
2023-05-04T06:54:31.839Z,18.88
2023-05-04T06:56:59.194Z,14.95
2023-05-04T06:59:26.746Z,26.40
2023-05-04T07:01:54.314Z,28.30
2023-05-04T07:04:23.349Z,24.52
2023-05-04T07:06:51.381Z,30.63
2023-05-04T07:09:22.136Z,21.17
2023-05-04T07:11:49.562Z,17.85
2023-05-04T07:14:16.842Z,14.45
2023-05-04T07:16:44.425Z,14.38
2023-05-04T07:19:11.791Z,15.40
2023-05-04T07:21:39.313Z,19.40
2023-05-04T07:24:07.347Z,21.05
2023-05-04T07:26:34.789Z,16.30
2023-05-04T07:29:02.182Z,21.58
2023-05-04T07:31:30.577Z,15.10
2023-05-04T07:33:57.945Z,11.95
2023-05-04T07:36:26.665Z,12.40
2023-05-04T07:38:54.621Z,17.73
2023-05-04T07:41:22.255Z,18.67
2023-05-04T07:43:49.428Z,16.15
2023-05-04T07:46:17.112Z,16.85
2023-05-04T07:48:44.377Z,15.32
2023-05-04T07:51:16.602Z,12.00
2023-05-04T07:53:43.863Z,11.27
2023-05-04T07:56:12.856Z,14.20
2023-05-04T07:58:41.276Z,11.20
2023-05-04T08:01:08.699Z,10.55
2023-05-04T08:03:36.334Z,8.40
2023-05-04T08:06:04.125Z,14.18
2023-05-04T08:08:31.275Z,10.82
2023-05-04T08:11:11.975Z,10.48
2023-05-04T08:13:48.015Z,8.60
2023-05-04T08:16:15.665Z,9.40
2023-05-04T08:18:43.430Z,8.30
2023-05-04T08:21:11.075Z,9.50
2023-05-04T08:23:38.468Z,7.60
2023-05-04T08:26:05.895Z,7.15
2023-05-04T08:28:39.972Z,6.30
2023-05-04T08:31:07.827Z,7.50
2023-05-04T08:33:35.018Z,5.38
2023-05-04T08:36:04.813Z,5.60
2023-05-04T08:38:32.118Z,4.85
2023-05-04T08:41:03.763Z,6.82
2023-05-04T08:43:35.237Z,5.10
2023-05-04T08:46:03.948Z,5.75
2023-05-04T08:48:36.989Z,4.93
2023-05-04T08:51:06.538Z,5.70
2023-05-04T08:53:37.235Z,3.60
2023-05-04T08:56:09.551Z,3.90
2023-05-04T08:58:43.827Z,3.95
2023-05-04T09:01:13.046Z,4.40
2023-05-04T09:03:41.299Z,3.42
2023-05-04T09:06:11.516Z,3.35
2023-05-04T09:08:38.746Z,4.78
2023-05-04T09:11:06.157Z,4.10
2023-05-04T09:13:34.064Z,4.95
2023-05-04T09:16:01.556Z,4.70
2023-05-04T09:18:44.288Z,5.97
2023-05-04T09:21:12.378Z,7.65
2023-05-04T09:23:48.319Z,4.05
2023-05-04T09:26:35.274Z,4.97
2023-05-04T09:29:16.321Z,4.28
2023-05-04T09:31:50.413Z,4.17
2023-05-04T09:34:22.239Z,5.20
2023-05-04T09:39:30.702Z,5.30
2023-05-04T09:41:58.142Z,4.20
2023-05-04T09:44:29.657Z,4.60
2023-05-04T09:49:34.577Z,4.53
2023-05-04T09:52:05.714Z,5.32
2023-05-04T09:54:36.085Z,4.10
2023-05-04T09:57:15.163Z,5.72
2023-05-04T09:59:42.879Z,5.40
2023-05-04T10:02:22.423Z,6.10
2023-05-04T10:04:52.740Z,5.60
2023-05-04T10:07:21.020Z,5.93
2023-05-04T10:09:51.158Z,4.20
2023-05-04T10:12:18.642Z,5.30
2023-05-04T10:14:46.893Z,4.80
2023-05-04T10:17:36.444Z,4.57
2023-05-04T10:20:38.090Z,4.88
2023-05-04T10:23:33.142Z,4.68
2023-05-04T10:26:59.568Z,3.88
2023-05-04T10:29:31.024Z,3.90
2023-05-04T10:31:59.497Z,8.13
2023-05-04T10:34:33.620Z,6.75
2023-05-04T10:37:03.177Z,9.00
2023-05-04T10:39:34.004Z,6.35
2023-05-04T10:42:08.402Z,6.13
2023-05-04T10:44:51.319Z,5.25
2023-05-04T10:47:37.247Z,5.15
2023-05-04T10:50:08.490Z,6.40
2023-05-04T10:52:57.637Z,4.07
2023-05-04T10:55:26.491Z,9.32
2023-05-04T10:57:56.738Z,5.05
2023-05-04T11:00:37.905Z,5.82
2023-05-04T11:03:09.333Z,5.82
2023-05-04T11:05:45.596Z,6.15
2023-05-04T11:08:24.334Z,6.72
2023-05-04T11:11:07.000Z,5.63
2023-05-04T11:16:05.285Z,4.00
2023-05-04T11:18:37.283Z,5.45
2023-05-04T11:23:32.623Z,6.32
2023-05-04T11:26:07.971Z,5.32
2023-05-04T11:28:38.221Z,4.80
2023-05-04T11:31:17.111Z,5.97
2023-05-04T11:33:50.209Z,5.13
2023-05-04T11:36:19.220Z,7.78
2023-05-04T11:38:47.550Z,6.82
2023-05-04T11:41:15.133Z,4.22
2023-05-04T11:43:45.301Z,5.22
2023-05-04T11:46:14.684Z,5.00
2023-05-04T11:48:42.131Z,4.28
2023-05-04T11:51:10.035Z,7.07
2023-05-04T11:53:39.084Z,5.38
2023-05-04T11:56:10.664Z,5.15
2023-05-04T11:58:38.091Z,6.13
2023-05-04T12:01:05.906Z,4.68
2023-05-04T12:08:42.008Z,3.35
2023-05-04T12:11:25.953Z,5.22
2023-05-04T12:14:14.034Z,3.78
2023-05-04T12:16:42.942Z,4.85
2023-05-04T12:19:13.128Z,4.78
2023-05-04T12:21:54.397Z,4.00
2023-05-04T12:24:23.848Z,5.32
2023-05-04T12:26:51.946Z,5.20
2023-05-04T12:29:19.154Z,5.38
2023-05-04T12:31:47.428Z,6.60
2023-05-04T12:34:14.724Z,6.05
2023-05-04T12:36:42.072Z,4.93
2023-05-04T12:39:09.283Z,4.32
2023-05-04T12:41:37.248Z,4.55
2023-05-04T12:44:04.727Z,8.55
2023-05-04T12:46:32.185Z,4.75
2023-05-04T12:48:59.337Z,4.30
2023-05-04T12:51:26.883Z,6.93
2023-05-04T12:53:55.616Z,6.95
2023-05-04T12:56:23.024Z,4.93
2023-05-04T12:58:50.240Z,3.90
2023-05-04T13:01:18.047Z,6.85
2023-05-04T13:03:45.421Z,5.63
2023-05-04T13:06:13.463Z,5.07
2023-05-04T13:08:40.688Z,6.75
2023-05-04T13:11:08.746Z,5.32
2023-05-04T13:13:36.136Z,4.80
2023-05-04T13:16:03.812Z,5.10
2023-05-04T13:18:31.136Z,4.80
2023-05-04T13:20:59.242Z,6.05
2023-05-04T13:23:26.716Z,4.70
2023-05-04T13:25:54.651Z,4.20
2023-05-04T13:28:21.873Z,4.15
2023-05-04T13:30:49.367Z,3.55
2023-05-04T13:33:27.911Z,5.28
2023-05-04T13:35:57.990Z,3.30
2023-05-04T13:38:25.720Z,4.13
2023-05-04T13:40:56.502Z,3.72
2023-05-04T13:43:24.889Z,3.72
2023-05-04T13:45:52.579Z,4.20
2023-05-04T13:48:19.755Z,3.47
2023-05-04T13:50:47.172Z,3.55
2023-05-04T13:53:14.701Z,3.33
2023-05-04T13:55:43.744Z,7.85
2023-05-04T13:58:11.021Z,3.97
2023-05-04T14:00:38.575Z,4.63
2023-05-04T14:03:05.744Z,2.83
2023-05-04T14:05:35.398Z,4.70
2023-05-04T14:08:02.932Z,3.42
2023-05-04T14:10:30.304Z,5.75
2023-05-04T14:12:57.707Z,4.45
2023-05-04T14:15:27.398Z,5.88
2023-05-04T14:17:54.654Z,7.18
2023-05-04T14:20:22.457Z,5.30
2023-05-04T14:22:49.622Z,6.05
2023-05-04T14:25:17.107Z,5.53
2023-05-04T14:27:44.363Z,3.85
2023-05-04T14:30:12.646Z,3.95
2023-05-04T14:32:41.076Z,4.28
2023-05-04T14:35:10.502Z,4.22
2023-05-04T14:37:40.383Z,7.72
2023-05-04T14:40:10.880Z,3.05
2023-05-04T14:42:38.460Z,6.53
2023-05-04T14:45:08.163Z,3.30
2023-05-04T14:47:35.709Z,3.58
2023-05-04T14:50:03.655Z,4.25
2023-05-04T14:52:31.539Z,4.35
2023-05-04T14:54:58.929Z,4.18
2023-05-04T14:57:28.751Z,3.17
2023-05-04T14:59:56.121Z,3.15
2023-05-04T15:02:23.504Z,3.25
2023-05-04T15:04:51.008Z,3.17
2023-05-04T15:07:20.634Z,3.38
2023-05-04T15:09:48.491Z,3.30
2023-05-04T15:12:16.466Z,2.75
2023-05-04T15:14:44.486Z,4.50
2023-05-04T15:17:12.068Z,3.75
2023-05-04T15:19:39.935Z,3.13
2023-05-04T15:22:07.578Z,3.83
2023-05-04T15:24:35.456Z,2.85
2023-05-04T15:27:03.660Z,3.05
2023-05-04T15:29:31.310Z,4.07
2023-05-04T15:31:58.558Z,2.58
2023-05-04T15:34:26.158Z,5.03
2023-05-04T15:36:55.014Z,4.03
2023-05-04T15:39:22.377Z,3.05
2023-05-04T15:41:49.488Z,3.40
2023-05-04T15:44:17.608Z,3.38
2023-05-04T15:46:45.511Z,2.60
2023-05-04T15:49:13.123Z,4.18
2023-05-04T15:51:40.392Z,3.30
2023-05-04T15:54:07.790Z,3.22
2023-05-04T15:56:35.363Z,4.03
2023-05-04T15:59:07.152Z,2.78
2023-05-04T16:01:34.371Z,3.58
2023-05-04T16:04:04.555Z,4.63
2023-05-04T16:06:31.773Z,5.50
2023-05-04T16:08:59.171Z,2.95
2023-05-04T16:11:26.312Z,4.10
2023-05-04T16:13:53.648Z,3.42
2023-05-04T16:16:20.938Z,3.50
2023-05-04T16:18:48.435Z,2.72
2023-05-04T16:21:15.724Z,4.30
2023-05-04T16:23:43.151Z,3.78
2023-05-04T16:26:10.482Z,1.60
2023-05-04T16:28:37.963Z,2.40
2023-05-04T16:31:06.031Z,1.95
2023-05-04T16:33:33.607Z,2.78
2023-05-04T16:36:00.826Z,1.77
2023-05-04T16:38:29.334Z,3.45
2023-05-04T16:40:56.487Z,2.83
2023-05-04T16:43:24.305Z,3.97
2023-05-04T16:45:51.422Z,2.83
2023-05-04T16:48:18.894Z,4.10
2023-05-04T16:50:46.440Z,3.42
2023-05-04T16:53:13.800Z,3.97
2023-05-04T16:55:41.032Z,2.70
2023-05-04T16:58:08.435Z,1.83
2023-05-04T17:00:35.770Z,3.85
2023-05-04T17:03:03.374Z,2.75
2023-05-04T17:05:30.647Z,2.67
2023-05-04T17:07:58.043Z,2.25
2023-05-04T17:10:25.210Z,2.10
2023-05-04T17:12:54.604Z,3.13
2023-05-04T17:15:21.924Z,2.00
2023-05-04T17:17:49.405Z,3.47
2023-05-04T17:20:16.591Z,3.53
2023-05-04T17:22:44.457Z,3.35
2023-05-04T17:25:12.696Z,2.15
2023-05-04T17:27:40.332Z,1.50
2023-05-04T17:30:08.347Z,1.98
2023-05-04T17:32:37.415Z,3.92
2023-05-04T17:35:16.482Z,2.47
2023-05-04T17:37:51.226Z,2.72
2023-05-04T17:40:18.419Z,2.47
2023-05-04T17:42:45.876Z,1.83
2023-05-04T17:45:13.140Z,2.72
2023-05-04T17:47:40.773Z,2.85
2023-05-04T17:50:08.584Z,3.10
2023-05-04T17:52:36.434Z,3.28
2023-05-04T17:55:04.378Z,2.78
2023-05-04T17:57:31.753Z,3.47
2023-05-04T17:59:59.696Z,2.97
2023-05-04T18:02:29.581Z,2.80
2023-05-04T18:04:56.812Z,3.97
2023-05-04T18:07:24.127Z,2.40
2023-05-04T18:09:51.581Z,2.33
2023-05-04T18:12:18.887Z,3.08
2023-05-04T18:14:46.014Z,2.80
2023-05-04T18:17:13.708Z,2.63
2023-05-04T18:19:40.713Z,2.53
2023-05-04T18:22:08.397Z,2.10
2023-05-04T18:24:35.581Z,2.95
2023-05-04T18:27:03.043Z,2.55
2023-05-04T18:29:30.720Z,2.92
2023-05-04T18:31:59.628Z,3.53
2023-05-04T18:34:26.732Z,4.32
2023-05-04T18:36:54.389Z,4.43
2023-05-04T18:39:21.655Z,4.15
2023-05-04T18:41:50.718Z,4.30
2023-05-04T18:44:17.803Z,4.72
2023-05-04T18:46:45.152Z,6.47
2023-05-04T18:49:12.287Z,3.85
2023-05-04T18:51:41.674Z,4.75
2023-05-04T18:54:09.043Z,5.32
2023-05-04T18:56:36.423Z,6.55
2023-05-04T18:59:05.882Z,5.68
2023-05-04T19:01:33.560Z,5.63
2023-05-04T19:04:00.788Z,5.75
2023-05-04T19:06:28.501Z,5.80
2023-05-04T19:08:55.808Z,7.47
2023-05-04T19:11:23.196Z,5.60
2023-05-04T19:13:50.219Z,6.55
2023-05-04T19:16:17.863Z,7.70
2023-05-04T19:18:45.621Z,6.30
2023-05-04T19:21:13.062Z,5.65
2023-05-04T19:23:40.257Z,6.65
2023-05-04T19:26:07.853Z,7.15
2023-05-04T19:28:35.274Z,6.45
2023-05-04T19:31:03.158Z,6.57
2023-05-04T19:33:44.546Z,5.45
2023-05-04T19:36:16.160Z,6.88
2023-05-04T19:38:43.423Z,7.53
2023-05-04T19:41:11.110Z,5.85
2023-05-04T19:43:38.830Z,8.52
2023-05-04T19:46:06.750Z,6.50
2023-05-04T19:48:34.093Z,7.43
2023-05-04T19:51:02.790Z,6.35
2023-05-04T19:53:31.114Z,7.10
2023-05-04T19:55:59.071Z,7.10
2023-05-04T19:58:28.089Z,7.90
2023-05-04T20:00:56.018Z,6.88
2023-05-04T20:03:25.519Z,6.10
2023-05-04T20:05:53.384Z,7.10
2023-05-04T20:08:20.850Z,7.30
2023-05-04T20:10:48.219Z,7.43
2023-05-04T20:13:15.435Z,6.38
2023-05-04T20:15:42.791Z,7.82
2023-05-04T20:18:10.005Z,6.82
2023-05-04T20:20:37.428Z,8.05
2023-05-04T20:23:05.014Z,6.53
2023-05-04T20:25:32.534Z,6.85
2023-05-04T20:27:59.730Z,5.90
2023-05-04T20:30:28.605Z,7.07
2023-05-04T20:32:55.754Z,6.72
2023-05-04T20:35:24.781Z,8.15
2023-05-04T20:37:51.922Z,8.35
2023-05-04T20:40:19.639Z,7.38
2023-05-04T20:42:46.814Z,9.05
2023-05-04T20:45:14.245Z,7.85
2023-05-04T20:47:41.471Z,9.48
2023-05-04T20:50:10.311Z,8.73
2023-05-04T20:52:38.431Z,9.70
2023-05-04T20:55:07.425Z,10.05
2023-05-04T20:57:34.867Z,9.30
2023-05-04T21:00:04.893Z,9.77
2023-05-04T21:02:32.659Z,9.50
2023-05-04T21:05:02.340Z,9.43
2023-05-04T21:07:29.594Z,11.27
2023-05-04T21:09:59.843Z,10.15
2023-05-04T21:12:27.049Z,9.55
2023-05-04T21:14:54.489Z,10.88
2023-05-04T21:17:21.746Z,11.32
2023-05-04T21:19:49.117Z,10.15
2023-05-04T21:22:17.601Z,10.38
2023-05-04T21:24:46.680Z,11.13
2023-05-04T21:27:14.137Z,11.20
2023-05-04T21:29:41.596Z,9.25
2023-05-04T21:32:09.124Z,10.70
2023-05-04T21:34:36.859Z,10.82
2023-05-04T21:37:04.239Z,11.32
2023-05-04T21:39:31.830Z,8.40
2023-05-04T21:41:59.102Z,10.48
2023-05-04T21:44:26.521Z,9.57
2023-05-04T21:46:53.763Z,10.50
2023-05-04T21:49:21.326Z,11.45
2023-05-04T21:51:49.164Z,10.20
2023-05-04T21:54:16.467Z,11.77
2023-05-04T21:56:43.608Z,11.32
2023-05-04T21:59:10.975Z,9.18
2023-05-04T22:01:38.224Z,10.38
2023-05-04T22:04:09.518Z,10.80
2023-05-04T22:06:36.721Z,10.73
2023-05-04T22:09:05.032Z,10.90
2023-05-04T22:11:32.354Z,13.07
2023-05-04T22:13:59.642Z,13.15
2023-05-04T22:16:26.926Z,11.27
2023-05-04T22:18:54.415Z,11.63
2023-05-04T22:21:21.553Z,11.38
2023-05-04T22:23:48.950Z,12.05
2023-05-04T22:26:16.135Z,11.18
2023-05-04T22:28:45.020Z,10.73
2023-05-04T22:31:12.261Z,10.45
2023-05-04T22:33:39.689Z,10.70
2023-05-04T22:36:07.425Z,11.57
2023-05-04T22:38:34.820Z,10.57
2023-05-04T22:41:04.257Z,10.80
2023-05-04T22:43:31.560Z,10.48
2023-05-04T22:45:58.729Z,10.30
2023-05-04T22:48:26.072Z,11.35
2023-05-04T22:50:53.312Z,9.75
2023-05-04T22:53:20.884Z,9.75
2023-05-04T22:55:48.031Z,11.68
2023-05-04T22:58:15.421Z,11.40
2023-05-04T23:00:43.099Z,12.73
2023-05-04T23:03:10.938Z,11.43
2023-05-04T23:05:38.055Z,10.52
2023-05-04T23:08:05.624Z,11.45
2023-05-04T23:10:32.795Z,10.80
2023-05-04T23:13:01.095Z,9.13
2023-05-04T23:15:29.511Z,9.00
2023-05-04T23:17:56.903Z,8.55
2023-05-04T23:20:24.193Z,8.90
2023-05-04T23:22:51.615Z,9.60
2023-05-04T23:25:18.891Z,10.25
2023-05-04T23:27:46.351Z,9.57
2023-05-04T23:30:14.050Z,10.20
2023-05-04T23:32:41.455Z,10.70
2023-05-04T23:35:09.275Z,10.73
2023-05-04T23:37:36.711Z,9.68
2023-05-04T23:40:05.692Z,8.88
2023-05-04T23:42:33.136Z,11.50
2023-05-04T23:45:00.211Z,10.90
2023-05-04T23:47:29.889Z,11.48
2023-05-04T23:49:57.017Z,11.65
2023-05-04T23:52:24.322Z,10.30
2023-05-04T23:54:54.791Z,11.05
2023-05-04T23:57:22.336Z,11.80
2023-05-04T23:59:49.668Z,10.73
